createdAt,value
2023-10-10T00:02:21.901Z,101062.41
2023-10-10T00:04:55.804Z,101057.25
2023-10-10T00:07:24.804Z,101054.66
2023-10-10T00:09:52.078Z,101053.03
2023-10-10T00:12:21.040Z,101052.00
2023-10-10T00:14:52.025Z,101046.19
2023-10-10T00:17:21.984Z,101046.06
2023-10-10T00:19:54.026Z,101046.19
2023-10-10T00:22:35.780Z,101031.53
2023-10-10T00:25:13.320Z,101045.50
2023-10-10T00:27:41.204Z,101041.09
2023-10-10T00:30:09.047Z,101041.09
2023-10-10T00:32:37.162Z,101036.03
2023-10-10T00:35:07.413Z,101043.06
2023-10-10T00:37:36.268Z,101050.94
2023-10-10T00:40:10.003Z,101044.72
2023-10-10T00:42:39.170Z,101048.44
2023-10-10T00:45:10.885Z,101045.06
2023-10-10T00:47:42.607Z,101055.38
2023-10-10T00:50:17.580Z,101049.22
2023-10-10T00:52:50.172Z,101051.00
2023-10-10T00:55:23.280Z,101050.69
2023-10-10T00:57:54.255Z,101049.88
2023-10-10T01:00:26.462Z,101049.16
2023-10-10T01:02:57.768Z,101043.97
2023-10-10T01:05:40.329Z,101050.88
2023-10-10T01:08:09.625Z,101044.81
2023-10-10T01:11:04.019Z,101044.91
2023-10-10T01:13:32.055Z,101051.09
2023-10-10T01:16:05.415Z,101046.72
2023-10-10T01:18:41.236Z,101050.25
2023-10-10T01:21:10.955Z,101047.84
2023-10-10T01:23:39.395Z,101049.66
2023-10-10T01:26:10.801Z,101059.09
2023-10-10T01:28:40.028Z,101052.25
2023-10-10T01:31:11.838Z,101053.13
2023-10-10T01:33:39.397Z,101052.06
2023-10-10T01:36:14.452Z,101052.13
2023-10-10T01:39:09.423Z,101049.63
2023-10-10T01:41:40.334Z,101046.19
2023-10-10T01:44:19.749Z,101049.03
2023-10-10T01:46:47.673Z,101046.22
2023-10-10T01:49:16.673Z,101037.63
2023-10-10T01:51:45.051Z,101047.19
2023-10-10T01:54:30.347Z,101045.41
2023-10-10T01:56:57.975Z,101042.75
2023-10-10T01:59:27.158Z,101047.13
2023-10-10T02:01:55.869Z,101050.75
2023-10-10T02:04:23.396Z,101055.91
2023-10-10T02:06:57.877Z,101055.06
2023-10-10T02:09:25.440Z,101056.91
2023-10-10T02:11:56.065Z,101059.53
2023-10-10T02:14:26.823Z,101049.94
2023-10-10T02:16:57.552Z,101053.63
2023-10-10T02:19:35.763Z,101049.13
2023-10-10T02:22:16.573Z,101056.09
2023-10-10T02:24:50.179Z,101054.63
2023-10-10T02:27:24.144Z,101057.16
2023-10-10T02:29:51.399Z,101055.53
2023-10-10T02:32:21.953Z,101052.81
2023-10-10T02:35:15.880Z,101054.63
2023-10-10T02:37:46.310Z,101057.19
2023-10-10T02:40:16.223Z,101053.69
2023-10-10T02:42:51.997Z,101059.78
2023-10-10T02:45:28.818Z,101059.84
2023-10-10T02:47:56.643Z,101059.06
2023-10-10T02:50:42.568Z,101050.22
2023-10-10T02:53:10.323Z,101051.28
2023-10-10T02:55:42.678Z,101049.69
2023-10-10T02:58:30.365Z,101049.69
2023-10-10T03:01:01.087Z,101049.03
2023-10-10T03:03:28.608Z,101053.53
2023-10-10T03:05:56.983Z,101053.66
2023-10-10T03:08:33.939Z,101055.50
2023-10-10T03:11:16.210Z,101056.31
2023-10-10T03:13:49.610Z,101050.28
2023-10-10T03:16:17.247Z,101059.00
2023-10-10T03:19:03.009Z,101053.81
2023-10-10T03:21:49.945Z,101063.59
2023-10-10T03:24:26.482Z,101064.63
2023-10-10T03:27:00.654Z,101059.38
2023-10-10T03:29:38.784Z,101061.28
2023-10-10T03:32:23.488Z,101063.06
2023-10-10T03:35:20.191Z,101058.66
2023-10-10T03:37:55.814Z,101057.03
2023-10-10T03:40:38.404Z,101058.88
2023-10-10T03:43:24.172Z,101059.72
2023-10-10T03:46:10.117Z,101063.91
2023-10-10T03:48:55.812Z,101067.22
2023-10-10T03:51:41.641Z,101072.66
2023-10-10T03:54:27.780Z,101068.22
2023-10-10T03:57:13.806Z,101083.00
2023-10-10T03:59:59.750Z,101082.09
2023-10-10T04:02:45.987Z,101079.53
2023-10-10T04:05:31.844Z,101081.25
2023-10-10T04:08:17.911Z,101087.34
2023-10-10T04:11:06.744Z,101090.75
2023-10-10T04:13:52.650Z,101086.28
2023-10-10T04:16:38.973Z,101093.28
2023-10-10T04:19:25.085Z,101101.19
2023-10-10T04:22:11.004Z,101100.31
2023-10-10T04:24:59.368Z,101103.72
2023-10-10T04:27:46.774Z,101103.88
2023-10-10T04:30:32.636Z,101104.63
2023-10-10T04:33:18.806Z,101114.97
2023-10-10T04:36:04.863Z,101114.00
2023-10-10T04:38:50.932Z,101125.31
2023-10-10T04:41:37.074Z,101115.63
2023-10-10T04:44:25.792Z,101111.44
2023-10-10T04:47:11.519Z,101116.31
2023-10-10T04:50:02.289Z,101127.41
2023-10-10T04:52:51.772Z,101141.31
2023-10-10T04:55:38.197Z,101137.53
2023-10-10T04:58:24.020Z,101130.47
2023-10-10T05:01:10.025Z,101126.59
2023-10-10T05:03:56.104Z,101136.25
2023-10-10T05:06:42.142Z,101140.41
2023-10-10T05:09:28.181Z,101136.84
2023-10-10T05:12:14.319Z,101136.75
2023-10-10T05:15:00.316Z,101133.19
2023-10-10T05:17:46.655Z,101139.03
2023-10-10T05:20:32.546Z,101130.88
2023-10-10T05:23:18.648Z,101135.88
2023-10-10T05:25:46.160Z,101132.22
2023-10-10T05:28:13.534Z,101131.25
2023-10-10T05:30:47.010Z,101131.09
2023-10-10T05:33:20.906Z,101137.94
2023-10-10T05:35:49.139Z,101132.56
2023-10-10T05:38:17.959Z,101137.75
2023-10-10T05:40:48.468Z,101141.13
2023-10-10T05:43:20.627Z,101140.94
2023-10-10T05:45:50.023Z,101143.31
2023-10-10T05:48:17.379Z,101147.53
2023-10-10T05:50:45.065Z,101132.50
2023-10-10T05:53:12.554Z,101138.53
2023-10-10T05:55:40.061Z,101140.25
2023-10-10T05:58:07.417Z,101138.19
2023-10-10T06:00:38.108Z,101148.25
2023-10-10T06:03:09.318Z,101142.78
2023-10-10T06:05:37.266Z,101144.50
2023-10-10T06:08:07.587Z,101153.13
2023-10-10T06:10:35.292Z,101154.63
2023-10-10T06:13:05.458Z,101158.91
2023-10-10T06:15:35.978Z,101154.16
2023-10-10T06:18:14.635Z,101148.66
2023-10-10T06:21:02.533Z,101148.56
2023-10-10T06:23:34.404Z,101155.91
2023-10-10T06:26:02.940Z,101147.69
2023-10-10T06:28:36.958Z,101152.75
2023-10-10T06:31:11.496Z,101149.78
2023-10-10T06:33:42.429Z,101147.59
2023-10-10T06:36:23.648Z,101146.94
2023-10-10T06:39:07.624Z,101141.91
2023-10-10T06:41:40.123Z,101140.81
2023-10-10T06:44:19.431Z,101142.38
2023-10-10T06:46:50.682Z,101138.72
2023-10-10T06:49:22.299Z,101144.44
2023-10-10T06:51:50.963Z,101145.56
2023-10-10T06:54:28.684Z,101148.16
2023-10-10T06:57:02.511Z,101147.66
2023-10-10T06:59:30.748Z,101148.09
2023-10-10T07:02:15.063Z,101147.00
2023-10-10T07:04:42.616Z,101137.97
2023-10-10T07:07:11.299Z,101146.03
2023-10-10T07:09:38.856Z,101143.31
2023-10-10T07:12:12.329Z,101141.59
2023-10-10T07:14:55.637Z,101149.69
2023-10-10T07:17:28.689Z,101141.84
2023-10-10T07:20:16.398Z,101141.47
2023-10-10T07:22:46.022Z,101141.59
2023-10-10T07:25:33.131Z,101139.28
2023-10-10T07:28:02.535Z,101134.00
2023-10-10T07:30:36.590Z,101134.38
2023-10-10T07:33:04.505Z,101136.44
2023-10-10T07:35:37.783Z,101145.09
2023-10-10T07:38:05.867Z,101146.50
2023-10-10T07:40:39.059Z,101141.28
2023-10-10T07:43:08.759Z,101143.94
2023-10-10T07:45:44.867Z,101141.09
2023-10-10T07:48:12.869Z,101139.53
2023-10-10T07:51:03.275Z,101134.38
2023-10-10T07:53:35.707Z,101140.91
2023-10-10T07:56:03.229Z,101139.91
2023-10-10T07:58:53.207Z,101140.13
2023-10-10T08:01:21.721Z,101138.59
2023-10-10T08:03:49.612Z,101138.47
2023-10-10T08:06:25.311Z,101128.09
2023-10-10T08:09:11.621Z,101134.63
2023-10-10T08:11:39.539Z,101125.41
2023-10-10T08:14:08.684Z,101115.84
2023-10-10T08:16:37.299Z,101117.13
2023-10-10T08:19:12.082Z,101117.13
2023-10-10T08:21:41.032Z,101110.41
2023-10-10T08:24:13.364Z,101127.34
2023-10-10T08:26:40.966Z,101124.88
2023-10-10T08:29:10.614Z,101131.72
2023-10-10T08:31:40.671Z,101134.19
2023-10-10T08:34:10.441Z,101130.41
2023-10-10T08:36:45.575Z,101115.22
2023-10-10T08:39:26.488Z,101125.41
2023-10-10T08:41:54.695Z,101129.38
2023-10-10T08:44:23.339Z,101123.63
2023-10-10T08:46:53.581Z,101123.16
2023-10-10T08:49:21.035Z,101115.66
2023-10-10T08:51:49.824Z,101117.00
2023-10-10T08:54:18.048Z,101105.78
2023-10-10T08:57:04.061Z,101113.25
2023-10-10T08:59:33.145Z,101107.78
2023-10-10T09:02:13.962Z,101114.53
2023-10-10T09:04:41.965Z,101112.56
2023-10-10T09:07:12.466Z,101103.16
2023-10-10T09:09:41.251Z,101093.69
2023-10-10T09:12:16.183Z,101094.00
2023-10-10T09:14:51.241Z,101109.91
2023-10-10T09:17:39.432Z,101088.13
2023-10-10T09:20:30.448Z,101085.63
2023-10-10T09:23:17.252Z,101078.56
2023-10-10T09:25:58.865Z,101091.97
2023-10-10T09:28:32.406Z,101079.78
2023-10-10T09:31:15.723Z,101078.84
2023-10-10T09:33:47.020Z,101070.69
2023-10-10T09:36:21.003Z,101072.47
2023-10-10T09:38:49.831Z,101068.41
2023-10-10T09:41:34.787Z,101061.41
2023-10-10T09:44:25.064Z,101064.78
2023-10-10T09:47:10.282Z,101064.97
2023-10-10T09:49:45.159Z,101071.38
2023-10-10T09:52:39.466Z,101062.16
2023-10-10T09:55:28.562Z,101059.75
2023-10-10T09:58:09.251Z,101056.09
2023-10-10T10:00:38.563Z,101048.63
2023-10-10T10:03:32.579Z,101051.66
2023-10-10T10:06:36.087Z,101056.66
2023-10-10T10:09:19.157Z,101060.25
2023-10-10T10:12:20.616Z,101058.66
2023-10-10T10:15:30.071Z,101056.28
2023-10-10T10:18:28.497Z,101052.69
2023-10-10T10:21:15.575Z,101047.06
2023-10-10T10:23:47.100Z,101041.31
2023-10-10T10:26:35.038Z,101045.19
2023-10-10T10:29:17.022Z,101047.13
2023-10-10T10:31:58.985Z,101052.06
2023-10-10T10:34:31.608Z,101054.63
2023-10-10T10:37:08.621Z,101055.31
2023-10-10T10:39:37.074Z,101041.34
2023-10-10T10:42:16.976Z,101046.31
2023-10-10T10:45:00.560Z,101046.00
2023-10-10T10:47:40.849Z,101048.59
2023-10-10T10:50:29.255Z,101043.16
2023-10-10T10:53:06.731Z,101047.94
2023-10-10T10:55:41.037Z,101033.00
2023-10-10T10:58:10.275Z,101041.78
2023-10-10T11:00:59.735Z,101048.72
2023-10-10T11:03:38.622Z,101041.81
2023-10-10T11:06:08.511Z,101036.56
2023-10-10T11:08:57.204Z,101040.94
2023-10-10T11:11:33.172Z,101040.31
2023-10-10T11:14:10.951Z,101038.31
2023-10-10T11:16:40.030Z,101041.19
2023-10-10T11:19:34.514Z,101028.94
2023-10-10T11:22:06.718Z,101031.03
2023-10-10T11:24:36.019Z,101039.56
2023-10-10T11:27:15.774Z,101037.31
2023-10-10T11:29:49.365Z,101032.03
2023-10-10T11:32:26.021Z,101032.25
2023-10-10T11:35:18.741Z,101041.06
2023-10-10T11:37:50.005Z,101034.59
2023-10-10T11:40:21.080Z,101041.16
2023-10-10T11:42:49.825Z,101044.88
2023-10-10T11:45:21.411Z,101043.94
2023-10-10T11:47:49.280Z,101023.88
2023-10-10T11:50:17.130Z,101022.13
2023-10-10T11:52:53.183Z,101042.44
2023-10-10T11:55:56.703Z,101036.06
2023-10-10T11:58:37.614Z,101027.97
2023-10-10T12:01:10.845Z,101036.56
2023-10-10T12:03:42.443Z,101039.81
2023-10-10T12:06:21.154Z,101033.47
2023-10-10T12:08:52.507Z,101035.44
2023-10-10T12:11:24.381Z,101035.13
2023-10-10T12:13:53.990Z,101030.19
2023-10-10T12:16:25.827Z,101026.63
2023-10-10T12:18:56.786Z,101027.72
2023-10-10T12:21:25.272Z,101034.63
2023-10-10T12:24:00.624Z,101038.22
2023-10-10T12:26:31.204Z,101032.63
2023-10-10T12:28:59.568Z,101033.53
2023-10-10T12:31:27.152Z,101035.91
2023-10-10T12:33:55.667Z,101026.59
2023-10-10T12:36:24.396Z,101019.91
2023-10-10T12:38:51.784Z,101015.13
2023-10-10T12:41:22.644Z,101017.13
2023-10-10T12:43:53.736Z,101027.00
2023-10-10T12:46:24.055Z,101027.31
2023-10-10T12:48:54.415Z,101025.41
2023-10-10T12:51:26.858Z,101021.63
2023-10-10T12:54:05.782Z,101021.00
2023-10-10T12:56:39.958Z,101020.56
2023-10-10T12:59:25.903Z,101027.75
2023-10-10T13:01:57.634Z,101034.22
2023-10-10T13:04:31.270Z,101029.78
2023-10-10T13:07:06.495Z,101027.59
2023-10-10T13:09:34.857Z,101026.63
2023-10-10T13:12:05.463Z,101026.16
2023-10-10T13:14:36.744Z,101021.25
2023-10-10T13:17:22.999Z,101023.16
2023-10-10T13:19:50.610Z,101024.00
2023-10-10T13:22:24.214Z,101020.56
2023-10-10T13:24:52.058Z,101027.91
2023-10-10T13:27:22.290Z,101030.56
2023-10-10T13:29:50.133Z,101028.59
2023-10-10T13:32:17.568Z,101036.94
2023-10-10T13:34:45.095Z,101023.06
2023-10-10T13:37:12.735Z,101028.47
2023-10-10T13:39:49.132Z,101038.31
2023-10-10T13:42:19.421Z,101040.78
2023-10-10T13:44:49.919Z,101042.81
2023-10-10T13:47:18.477Z,101045.84
2023-10-10T13:49:46.551Z,101038.63
2023-10-10T13:52:14.645Z,101046.03
2023-10-10T13:54:42.076Z,101046.44
2023-10-10T13:57:09.516Z,101051.91
2023-10-10T13:59:37.698Z,101052.22
2023-10-10T14:02:06.028Z,101053.91
2023-10-10T14:04:47.925Z,101063.56
2023-10-10T14:07:15.776Z,101063.56
2023-10-10T14:10:02.331Z,101072.97
2023-10-10T14:12:33.903Z,101068.16
2023-10-10T14:15:03.054Z,101066.81
2023-10-10T14:17:31.408Z,101071.19
2023-10-10T14:20:02.193Z,101068.44
2023-10-10T14:22:38.037Z,101076.31
2023-10-10T14:25:18.810Z,101086.28
2023-10-10T14:27:47.077Z,101082.06
2023-10-10T14:30:24.961Z,101082.22
2023-10-10T14:32:56.245Z,101079.75
2023-10-10T14:35:25.224Z,101082.22
2023-10-10T14:38:01.645Z,101086.13
2023-10-10T14:40:32.375Z,101088.19
2023-10-10T14:43:00.423Z,101091.63
2023-10-10T14:45:30.433Z,101092.94
2023-10-10T14:47:58.243Z,101104.66
2023-10-10T14:50:25.974Z,101101.41
2023-10-10T14:52:54.749Z,101113.13
2023-10-10T14:55:25.666Z,101110.13
2023-10-10T14:57:56.480Z,101127.00
2023-10-10T15:00:30.048Z,101122.97
2023-10-10T15:02:58.129Z,101122.13
2023-10-10T15:05:26.819Z,101131.78
2023-10-10T15:07:55.594Z,101129.16
2023-10-10T15:10:27.655Z,101133.69
2023-10-10T15:12:56.197Z,101143.91
2023-10-10T15:15:24.467Z,101144.06
2023-10-10T15:17:52.905Z,101150.28
2023-10-10T15:20:20.510Z,101151.03
2023-10-10T15:22:47.906Z,101159.13
2023-10-10T15:25:16.666Z,101153.69
2023-10-10T15:27:47.836Z,101165.34
2023-10-10T15:30:16.476Z,101165.25
2023-10-10T15:32:48.769Z,101172.34
2023-10-10T15:35:20.082Z,101174.28
2023-10-10T15:37:49.062Z,101181.28
2023-10-10T15:40:22.934Z,101184.84
2023-10-10T15:42:53.830Z,101187.50
2023-10-10T15:45:24.139Z,101192.03
2023-10-10T15:47:54.385Z,101189.47
2023-10-10T15:50:25.039Z,101188.63
2023-10-10T15:52:52.533Z,101191.47
2023-10-10T15:55:25.618Z,101197.16
2023-10-10T15:57:54.372Z,101193.72
2023-10-10T16:00:30.695Z,101203.22
2023-10-10T16:02:58.329Z,101200.72
2023-10-10T16:05:26.727Z,101207.91
2023-10-10T16:08:08.408Z,101217.34
2023-10-10T16:10:39.585Z,101215.66
2023-10-10T16:13:09.813Z,101220.00
2023-10-10T16:15:38.174Z,101220.84
2023-10-10T16:18:07.260Z,101216.69
2023-10-10T16:20:37.699Z,101227.41
2023-10-10T16:23:09.669Z,101231.75
2023-10-10T16:25:38.737Z,101227.25
2023-10-10T16:28:07.140Z,101238.16
2023-10-10T16:30:40.689Z,101245.34
2023-10-10T16:33:10.412Z,101241.78
2023-10-10T16:35:47.543Z,101237.53
2023-10-10T16:38:23.121Z,101240.19
2023-10-10T16:40:53.955Z,101249.44
2023-10-10T16:43:25.681Z,101252.25
2023-10-10T16:45:53.484Z,101253.09
2023-10-10T16:48:21.286Z,101255.75
2023-10-10T16:50:48.794Z,101255.88
2023-10-10T16:53:16.303Z,101261.16
2023-10-10T16:55:43.705Z,101250.69
2023-10-10T16:58:15.670Z,101269.16
2023-10-10T17:00:49.147Z,101274.75
2023-10-10T17:03:17.483Z,101276.81
2023-10-10T17:05:52.086Z,101297.94
2023-10-10T17:08:20.073Z,101295.97
2023-10-10T17:10:48.026Z,101306.53
2023-10-10T17:13:17.202Z,101306.34
2023-10-10T17:15:48.450Z,101300.31
2023-10-10T17:18:16.617Z,101313.09
2023-10-10T17:20:44.176Z,101313.88
2023-10-10T17:23:14.459Z,101317.19
2023-10-10T17:25:42.463Z,101319.81
2023-10-10T17:28:11.806Z,101319.94
2023-10-10T17:30:41.556Z,101322.75
2023-10-10T17:33:09.388Z,101326.59
2023-10-10T17:35:37.407Z,101325.06
2023-10-10T17:38:05.045Z,101326.34
2023-10-10T17:40:35.944Z,101332.56
2023-10-10T17:43:04.885Z,101344.31
2023-10-10T17:45:35.806Z,101335.69
2023-10-10T17:48:07.139Z,101335.75
2023-10-10T17:50:39.274Z,101336.91
2023-10-10T17:53:14.010Z,101342.16
2023-10-10T17:55:43.672Z,101352.28
2023-10-10T17:58:11.734Z,101353.25
2023-10-10T18:00:39.278Z,101366.81
2023-10-10T18:03:06.996Z,101364.13
2023-10-10T18:05:42.367Z,101368.53
2023-10-10T18:08:11.863Z,101355.59
2023-10-10T18:10:39.508Z,101362.81
2023-10-10T18:13:09.170Z,101365.38
2023-10-10T18:15:37.837Z,101380.66
2023-10-10T18:18:09.116Z,101383.09
2023-10-10T18:20:43.874Z,101383.09
2023-10-10T18:23:11.545Z,101391.06
2023-10-10T18:25:43.205Z,101390.22
2023-10-10T18:28:12.374Z,101384.81
2023-10-10T18:30:42.261Z,101391.13
2023-10-10T18:33:12.039Z,101400.13
2023-10-10T18:35:42.842Z,101397.66
2023-10-10T18:38:11.713Z,101409.22
2023-10-10T18:40:42.627Z,101403.81
2023-10-10T18:43:10.460Z,101417.13
2023-10-10T18:45:39.270Z,101424.44
2023-10-10T18:48:07.522Z,101421.00
2023-10-10T18:50:36.551Z,101425.53
2023-10-10T18:53:04.140Z,101435.44
2023-10-10T18:55:31.596Z,101439.00
2023-10-10T18:58:01.632Z,101440.84
2023-10-10T19:00:33.644Z,101443.56
2023-10-10T19:03:01.098Z,101443.69
2023-10-10T19:05:29.708Z,101456.69
2023-10-10T19:07:59.631Z,101452.56
2023-10-10T19:10:27.801Z,101463.09
2023-10-10T19:12:56.887Z,101464.84
2023-10-10T19:15:26.637Z,101469.47
2023-10-10T19:18:00.763Z,101470.25
2023-10-10T19:20:34.294Z,101472.03
2023-10-10T19:23:10.199Z,101471.34
2023-10-10T19:25:48.299Z,101474.72
2023-10-10T19:28:17.702Z,101483.72
2023-10-10T19:30:46.198Z,101487.19
2023-10-10T19:33:16.809Z,101485.44
2023-10-10T19:35:45.471Z,101487.25
2023-10-10T19:38:14.307Z,101497.88
2023-10-10T19:40:44.990Z,101477.81
2023-10-10T19:43:16.590Z,101496.53
2023-10-10T19:45:46.847Z,101493.13
2023-10-10T19:48:17.637Z,101502.69
2023-10-10T19:50:48.914Z,101499.34
2023-10-10T19:53:18.178Z,101502.78
2023-10-10T19:55:50.306Z,101503.59
2023-10-10T19:58:22.187Z,101505.31
2023-10-10T20:00:49.963Z,101505.31
2023-10-10T20:03:28.970Z,101516.84
2023-10-10T20:05:57.913Z,101518.78
2023-10-10T20:08:25.222Z,101511.22
2023-10-10T20:10:53.023Z,101515.63
2023-10-10T20:13:21.912Z,101518.28
2023-10-10T20:15:49.344Z,101527.16
2023-10-10T20:18:17.067Z,101530.78
2023-10-10T20:20:44.765Z,101532.81
2023-10-10T20:23:12.209Z,101544.28
2023-10-10T20:25:41.484Z,101543.38
2023-10-10T20:28:11.158Z,101549.63
2023-10-10T20:30:45.420Z,101552.31
2023-10-10T20:33:16.991Z,101548.97
2023-10-10T20:35:45.998Z,101546.53
2023-10-10T20:38:20.731Z,101541.31
2023-10-10T20:40:48.637Z,101548.41
2023-10-10T20:43:16.350Z,101543.38
2023-10-10T20:45:45.081Z,101546.97
2023-10-10T20:48:22.991Z,101547.91
2023-10-10T20:50:51.472Z,101560.19
2023-10-10T20:53:18.924Z,101557.78
2023-10-10T20:55:47.547Z,101561.34
2023-10-10T20:58:15.562Z,101559.59
2023-10-10T21:00:43.527Z,101561.22
2023-10-10T21:03:15.579Z,101568.25
2023-10-10T21:05:46.420Z,101556.06
2023-10-10T21:08:14.029Z,101555.25
2023-10-10T21:10:41.918Z,101560.53
2023-10-10T21:13:09.499Z,101564.06
2023-10-10T21:15:37.180Z,101568.63
2023-10-10T21:18:09.392Z,101565.16
2023-10-10T21:23:11.840Z,101562.81
2023-10-10T21:25:42.535Z,101576.81
2023-10-10T21:28:10.153Z,101578.69
2023-10-10T21:30:39.598Z,101576.94
2023-10-10T21:33:09.195Z,101582.19
2023-10-10T21:35:36.866Z,101582.13
2023-10-10T21:38:04.435Z,101589.25
2023-10-10T21:40:34.045Z,101592.84
2023-10-10T21:43:01.447Z,101597.25
2023-10-10T21:45:33.704Z,101591.13
2023-10-10T21:48:04.973Z,101593.97
2023-10-10T21:50:33.464Z,101601.03
2023-10-10T21:53:01.616Z,101597.50
2023-10-10T21:55:29.727Z,101604.53
2023-10-10T21:57:58.303Z,101605.47
2023-10-10T22:00:32.328Z,101608.09
2023-10-10T22:03:05.257Z,101615.09
2023-10-10T22:05:33.934Z,101619.47
2023-10-10T22:08:05.812Z,101620.25
2023-10-10T22:10:34.473Z,101628.22
2023-10-10T22:13:03.113Z,101635.25
2023-10-10T22:15:36.056Z,101638.75
2023-10-10T22:18:10.284Z,101647.63
2023-10-10T22:20:38.033Z,101654.59
2023-10-10T22:23:06.182Z,101647.59
2023-10-10T22:25:36.102Z,101652.94
2023-10-10T22:28:05.542Z,101656.53
2023-10-10T22:30:37.140Z,101663.53
2023-10-10T22:33:06.217Z,101661.81
2023-10-10T22:35:36.429Z,101666.16
2023-10-10T22:38:06.990Z,101672.53
2023-10-10T22:40:35.282Z,101671.59
2023-10-10T22:43:05.119Z,101674.41
2023-10-10T22:45:35.062Z,101680.41
2023-10-10T22:48:04.560Z,101680.53
2023-10-10T22:50:35.610Z,101683.13
2023-10-10T22:53:04.977Z,101682.25
2023-10-10T22:55:36.816Z,101677.19
2023-10-10T22:58:09.081Z,101692.16
2023-10-10T23:00:38.132Z,101691.34
2023-10-10T23:03:11.123Z,101694.06
2023-10-10T23:05:40.790Z,101696.78
2023-10-10T23:08:08.798Z,101697.75
2023-10-10T23:10:36.458Z,101692.41
2023-10-10T23:13:04.104Z,101702.03
2023-10-10T23:15:31.796Z,101705.50
2023-10-10T23:18:01.368Z,101697.75
2023-10-10T23:20:30.186Z,101704.75
2023-10-10T23:23:00.116Z,101692.72
2023-10-10T23:25:27.668Z,101700.63
2023-10-10T23:27:57.279Z,101699.78
2023-10-10T23:30:29.695Z,101707.56
2023-10-10T23:33:00.552Z,101705.09
2023-10-10T23:35:31.489Z,101706.03
2023-10-10T23:38:06.955Z,101706.09
2023-10-10T23:40:42.837Z,101714.00
2023-10-10T23:43:20.611Z,101719.22
2023-10-10T23:45:55.905Z,101717.50
2023-10-10T23:48:30.767Z,101714.13
2023-10-10T23:51:07.964Z,101721.06
2023-10-10T23:53:39.871Z,101721.84
2023-10-10T23:56:07.278Z,101722.69
2023-10-10T23:58:36.418Z,101722.88
